createdAt,value
2018-07-21T00:02:13.738Z,56.10
2018-07-21T00:04:43.759Z,58.30
2018-07-21T00:07:13.721Z,60.30
2018-07-21T00:09:43.794Z,58.40
2018-07-21T00:12:13.823Z,57.80
2018-07-21T00:14:44.254Z,57.50
2018-07-21T00:17:14.235Z,57.80
2018-07-21T00:19:44.274Z,58.30
2018-07-21T00:22:14.310Z,58.80
2018-07-21T00:24:44.402Z,59.10
2018-07-21T00:27:14.404Z,59.60
2018-07-21T00:29:44.470Z,60.10
2018-07-21T00:32:14.526Z,60.30
2018-07-21T00:34:44.651Z,60.40
2018-07-21T00:37:14.827Z,60.50
2018-07-21T00:39:44.935Z,60.80
2018-07-21T00:42:15.083Z,61.00
2018-07-21T00:44:45.206Z,61.30
2018-07-21T00:47:15.205Z,61.60
2018-07-21T00:49:45.254Z,61.90
2018-07-21T00:52:15.236Z,62.00
2018-07-21T00:54:45.304Z,62.10
2018-07-21T00:57:15.420Z,62.20
2018-07-21T00:59:45.513Z,62.30
2018-07-21T01:02:15.538Z,62.20
2018-07-21T01:04:45.565Z,62.70
2018-07-21T01:07:15.591Z,62.90
2018-07-21T01:09:45.695Z,62.70
2018-07-21T01:14:45.299Z,64.10
2018-07-21T01:17:15.377Z,63.90
2018-07-21T01:19:45.378Z,63.60
2018-07-21T01:22:15.392Z,63.60
2018-07-21T01:24:45.470Z,63.70
2018-07-21T01:27:15.448Z,64.20
2018-07-21T01:29:45.496Z,64.10
2018-07-21T01:32:15.479Z,64.10
2018-07-21T01:34:45.469Z,64.30
2018-07-21T01:39:45.072Z,64.40
2018-07-21T01:42:15.063Z,64.70
2018-07-21T01:44:45.096Z,64.70
2018-07-21T01:47:15.094Z,65.30
2018-07-21T01:49:45.116Z,65.40
2018-07-21T01:52:15.127Z,65.10
2018-07-21T01:54:45.137Z,65.60
2018-07-21T01:57:15.135Z,66.20
2018-07-21T02:02:14.821Z,66.50
2018-07-21T02:04:44.842Z,66.90
2018-07-21T02:07:14.835Z,67.30
2018-07-21T02:09:44.804Z,67.80
2018-07-21T02:12:14.802Z,67.90
2018-07-21T02:14:44.860Z,68.40
2018-07-21T02:17:14.878Z,69.20
2018-07-21T02:19:44.888Z,70.20
2018-07-21T02:22:14.893Z,70.70
2018-07-21T02:24:45.045Z,71.30
2018-07-21T02:27:15.032Z,72.20
2018-07-21T02:29:45.071Z,72.60
2018-07-21T02:32:15.057Z,72.50
2018-07-21T02:34:45.155Z,72.50
2018-07-21T02:39:45.409Z,72.20
2018-07-21T02:42:15.402Z,71.90
2018-07-21T02:44:45.375Z,72.10
2018-07-21T02:47:15.422Z,72.90
2018-07-21T02:49:45.547Z,73.00
2018-07-21T02:52:15.518Z,73.60
2018-07-21T02:54:45.917Z,74.00
2018-07-21T02:59:45.965Z,74.60
2018-07-21T03:04:45.660Z,75.00
2018-07-21T03:07:15.677Z,74.80
2018-07-21T03:09:45.725Z,74.90
2018-07-21T03:12:15.747Z,75.20
2018-07-21T03:14:45.749Z,75.90
2018-07-21T03:17:15.751Z,75.80
2018-07-21T03:19:45.745Z,75.60
2018-07-21T03:22:15.765Z,76.00
2018-07-21T03:24:45.827Z,76.10
2018-07-21T03:27:15.932Z,76.40
2018-07-21T03:29:45.935Z,77.00
2018-07-21T03:32:15.925Z,76.80
2018-07-21T03:37:15.600Z,76.70
2018-07-21T03:39:45.547Z,77.30
2018-07-21T03:42:15.581Z,77.20
2018-07-21T03:44:45.539Z,77.70
2018-07-21T03:47:15.547Z,77.70
2018-07-21T03:52:15.225Z,79.00
2018-07-21T03:54:45.312Z,79.50
2018-07-21T03:57:15.318Z,80.40
2018-07-21T03:59:45.290Z,80.90
2018-07-21T04:02:15.293Z,81.70
2018-07-21T04:04:45.319Z,82.50
2018-07-21T04:07:15.304Z,82.80
2018-07-21T04:09:45.307Z,83.10
2018-07-21T04:12:15.339Z,83.10
2018-07-21T04:14:45.337Z,83.50
2018-07-21T04:17:22.896Z,83.70
2018-07-21T04:19:53.047Z,83.80
2018-07-21T04:22:23.778Z,83.50
2018-07-21T04:24:53.954Z,83.50
2018-07-21T04:27:24.823Z,84.30
2018-07-21T04:29:55.010Z,85.00
2018-07-21T04:32:25.199Z,85.40
2018-07-21T04:34:55.216Z,86.10
2018-07-21T04:37:25.247Z,86.40
2018-07-21T04:39:55.260Z,87.20
2018-07-21T04:42:25.278Z,88.30
2018-07-21T04:44:55.751Z,89.70
2018-07-21T04:49:55.502Z,90.10
2018-07-21T04:52:25.640Z,90.80
2018-07-21T04:54:55.650Z,90.90
2018-07-21T04:57:25.804Z,90.90
2018-07-21T04:59:55.912Z,91.20
2018-07-21T05:02:26.040Z,91.80
2018-07-21T05:04:56.034Z,91.90
2018-07-21T05:09:55.945Z,91.80
2018-07-21T05:12:26.053Z,91.60
2018-07-21T05:14:56.132Z,91.50
2018-07-21T05:17:26.291Z,91.70
2018-07-21T05:19:56.378Z,91.80
2018-07-21T05:22:26.529Z,90.90
2018-07-21T05:24:56.534Z,91.20
2018-07-21T05:27:26.814Z,90.40
2018-07-21T05:29:56.868Z,90.00
2018-07-21T05:32:27.059Z,90.00
2018-07-21T05:34:57.042Z,90.00
2018-07-21T05:37:27.210Z,90.10
2018-07-21T05:39:57.246Z,90.40
2018-07-21T05:42:27.398Z,90.50
2018-07-21T05:44:57.446Z,90.00
2018-07-21T05:47:27.552Z,90.20
2018-07-21T05:49:57.548Z,89.90
2018-07-21T05:52:27.716Z,90.30
2018-07-21T05:54:57.768Z,90.10
2018-07-21T05:59:57.522Z,89.70
2018-07-21T06:02:27.651Z,89.80
2018-07-21T06:04:57.943Z,90.00
2018-07-21T06:09:57.947Z,90.10
2018-07-21T06:12:28.288Z,90.30
2018-07-21T06:14:58.528Z,90.20
2018-07-21T06:17:28.766Z,89.50
2018-07-21T06:19:58.877Z,89.90
2018-07-21T06:22:29.127Z,89.90
2018-07-21T06:24:59.183Z,89.80
2018-07-21T06:27:29.399Z,88.50
2018-07-21T06:29:59.497Z,88.40
2018-07-21T06:34:59.401Z,88.00
2018-07-21T06:37:29.670Z,88.10
2018-07-21T06:42:29.769Z,87.70
2018-07-21T06:45:01.093Z,87.80
2018-07-21T06:47:31.279Z,87.50
2018-07-21T06:52:31.074Z,87.20
2018-07-21T06:55:01.160Z,86.80
2018-07-21T06:57:31.320Z,87.50
2018-07-21T07:00:01.402Z,87.80
2018-07-21T07:02:31.648Z,87.60
2018-07-21T07:05:02.173Z,87.80
2018-07-21T07:07:32.475Z,87.30
2018-07-21T07:10:02.606Z,86.80
2018-07-21T07:12:32.764Z,88.00
2018-07-21T07:15:02.908Z,87.40
2018-07-21T07:17:33.371Z,86.40
2018-07-21T07:20:03.478Z,87.30
2018-07-21T07:22:33.804Z,86.80
2018-07-21T07:27:33.614Z,87.50
2018-07-21T07:30:03.847Z,87.10
2018-07-21T07:32:34.207Z,87.30
2018-07-21T07:37:34.158Z,86.80
2018-07-21T07:40:04.379Z,86.80
2018-07-21T07:45:04.447Z,86.60
2018-07-21T07:47:34.727Z,86.80
2018-07-21T07:50:05.922Z,86.70
2018-07-21T07:52:36.281Z,87.00
2018-07-21T07:55:06.448Z,87.20
2018-07-21T07:57:36.884Z,87.30
2018-07-21T08:02:37.089Z,87.40
2018-07-21T08:05:08.439Z,88.30
2018-07-21T08:07:38.739Z,88.30
2018-07-21T08:10:08.835Z,87.70
2018-07-21T08:12:39.077Z,87.90
2018-07-21T08:15:09.246Z,87.40
2018-07-21T08:17:39.459Z,87.20
2018-07-21T08:20:09.666Z,87.50
2018-07-21T08:22:40.776Z,86.60
2018-07-21T08:27:40.573Z,87.00
2018-07-21T08:30:11.907Z,88.10
2018-07-21T08:32:42.441Z,88.00
2018-07-21T08:35:12.573Z,87.70
2018-07-21T08:37:42.630Z,88.10
2018-07-21T08:40:12.805Z,87.90
2018-07-21T08:42:42.868Z,87.40
2018-07-21T08:45:13.036Z,87.00
2018-07-21T08:47:43.111Z,87.50
2018-07-21T08:50:13.290Z,86.90
2018-07-21T08:52:43.312Z,87.40
2018-07-21T08:55:13.388Z,87.30
2018-07-21T08:57:43.454Z,87.70
2018-07-21T09:00:13.683Z,87.70
2018-07-21T09:02:43.646Z,86.70
2018-07-21T09:05:13.666Z,87.60
2018-07-21T09:07:43.836Z,87.50
2018-07-21T09:10:13.976Z,87.50
2018-07-21T09:12:43.985Z,87.60
2018-07-21T09:15:14.098Z,87.30
2018-07-21T09:17:45.995Z,87.40
2018-07-21T09:20:17.152Z,87.60
2018-07-21T09:22:47.620Z,86.50
2018-07-21T09:25:17.741Z,87.20
2018-07-21T09:27:47.755Z,87.20
2018-07-21T09:30:17.935Z,87.10
2018-07-21T09:32:48.013Z,87.90
2018-07-21T09:35:18.199Z,86.80
2018-07-21T09:37:48.265Z,86.70
2018-07-21T09:40:18.828Z,86.40
2018-07-21T09:42:49.091Z,86.20
2018-07-21T09:45:19.240Z,86.20
2018-07-21T09:47:49.378Z,86.30
2018-07-21T09:50:19.639Z,86.20
2018-07-21T09:52:49.804Z,86.30
2018-07-21T09:55:19.925Z,86.40
2018-07-21T09:57:50.257Z,86.00
2018-07-21T10:00:25.541Z,86.70
2018-07-21T10:02:55.691Z,86.90
2018-07-21T10:05:26.027Z,86.80
2018-07-21T10:07:56.335Z,87.50
2018-07-21T10:10:26.963Z,87.80
2018-07-21T10:12:57.192Z,88.30
2018-07-21T10:15:27.655Z,88.40
2018-07-21T10:17:57.839Z,89.30
2018-07-21T10:20:28.013Z,88.70
2018-07-21T10:22:58.207Z,89.30
2018-07-21T10:25:33.456Z,88.90
2018-07-21T10:28:08.694Z,90.00
2018-07-21T10:30:38.844Z,89.10
2018-07-21T10:35:38.751Z,90.00
2018-07-21T10:38:09.339Z,89.00
2018-07-21T10:40:39.373Z,89.20
2018-07-21T10:43:09.454Z,87.30
2018-07-21T10:45:39.482Z,88.30
2018-07-21T10:48:09.933Z,87.60
2018-07-21T10:50:40.069Z,87.70
2018-07-21T10:53:10.167Z,88.20
2018-07-21T10:55:40.182Z,86.90
2018-07-21T10:58:10.283Z,87.70
2018-07-21T11:00:40.361Z,87.20
2018-07-21T11:03:10.494Z,85.80
2018-07-21T11:05:40.563Z,86.50
2018-07-21T11:08:10.968Z,87.30
2018-07-21T11:10:40.967Z,87.20
2018-07-21T11:13:11.070Z,87.20
2018-07-21T11:15:42.238Z,87.00
2018-07-21T11:18:12.373Z,85.20
2018-07-21T11:20:42.486Z,87.00
2018-07-21T11:23:12.565Z,88.40
2018-07-21T11:25:42.677Z,85.90
2018-07-21T11:28:13.231Z,85.80
2018-07-21T11:30:43.253Z,84.80
2018-07-21T11:35:43.338Z,84.80
2018-07-21T11:40:51.881Z,85.60
2018-07-21T11:43:22.018Z,85.70
2018-07-21T11:45:52.138Z,86.50
2018-07-21T11:48:22.286Z,86.80
2018-07-21T11:50:52.419Z,85.70
2018-07-21T11:53:23.496Z,85.00
2018-07-21T11:55:53.665Z,87.00
2018-07-21T11:58:23.937Z,87.00
2018-07-21T12:00:54.318Z,85.10
2018-07-21T12:03:24.456Z,84.90
2018-07-21T12:05:54.533Z,83.80
2018-07-21T12:08:24.683Z,83.90
2018-07-21T12:10:55.761Z,83.80
2018-07-21T12:13:25.976Z,83.20
2018-07-21T12:15:56.059Z,83.40
2018-07-21T12:18:26.206Z,81.70
2018-07-21T12:20:57.407Z,83.00
2018-07-21T12:23:27.586Z,80.40
2018-07-21T12:25:57.770Z,79.80
2018-07-21T12:28:29.381Z,81.50
2018-07-21T12:30:59.501Z,81.70
2018-07-21T12:33:29.582Z,80.90
2018-07-21T12:35:59.699Z,81.60
2018-07-21T12:38:29.956Z,85.50
2018-07-21T12:41:00.161Z,86.80
2018-07-21T12:43:30.255Z,87.80
2018-07-21T12:46:00.376Z,90.20
2018-07-21T12:48:30.524Z,89.80
2018-07-21T12:51:00.595Z,87.60
2018-07-21T12:53:30.726Z,85.00
2018-07-21T12:56:00.826Z,86.90
2018-07-21T12:58:31.223Z,86.40
2018-07-21T13:01:01.319Z,85.70
2018-07-21T13:03:31.426Z,84.10
2018-07-21T13:08:31.299Z,89.00
2018-07-21T13:11:01.412Z,84.80
2018-07-21T13:13:31.516Z,83.40
2018-07-21T13:18:31.317Z,82.40
2018-07-21T13:21:01.539Z,82.40
2018-07-21T13:23:31.702Z,86.10
2018-07-21T13:26:02.180Z,88.20
2018-07-21T13:28:32.709Z,87.60
2018-07-21T13:31:02.856Z,86.10
2018-07-21T13:33:33.013Z,86.60
2018-07-21T13:36:03.157Z,84.70
2018-07-21T13:38:33.267Z,84.50
2018-07-21T13:41:03.362Z,82.40
2018-07-21T13:43:33.415Z,82.10
2018-07-21T13:46:03.738Z,83.00
2018-07-21T13:48:33.799Z,83.80
2018-07-21T13:51:03.961Z,83.50
2018-07-21T13:53:34.043Z,83.70
2018-07-21T13:56:04.182Z,83.20
2018-07-21T13:58:34.300Z,82.60
2018-07-21T14:01:04.416Z,82.80
2018-07-21T14:03:34.444Z,84.20
2018-07-21T14:06:04.609Z,82.50
2018-07-21T14:08:34.643Z,81.90
2018-07-21T14:11:04.755Z,81.40
2018-07-21T14:13:34.779Z,82.30
2018-07-21T14:16:04.914Z,83.30
2018-07-21T14:18:35.147Z,82.50
2018-07-21T14:21:05.295Z,81.90
2018-07-21T14:23:35.349Z,82.10
2018-07-21T14:26:05.498Z,83.20
2018-07-21T14:28:35.550Z,82.70
2018-07-21T14:31:05.630Z,82.90
2018-07-21T14:33:35.675Z,82.20
2018-07-21T14:36:06.053Z,82.70
2018-07-21T14:38:36.175Z,82.90
2018-07-21T14:41:06.500Z,81.70
2018-07-21T14:43:36.613Z,82.50
2018-07-21T14:46:06.829Z,82.30
2018-07-21T14:48:37.013Z,82.20
2018-07-21T14:51:07.144Z,79.60
2018-07-21T14:53:37.218Z,81.00
2018-07-21T14:56:07.420Z,79.80
2018-07-21T14:58:37.528Z,81.30
2018-07-21T15:01:07.853Z,80.50
2018-07-21T15:03:37.990Z,80.10
2018-07-21T15:06:09.985Z,80.20
2018-07-21T15:08:40.077Z,81.10
2018-07-21T15:11:10.198Z,80.50
2018-07-21T15:13:40.343Z,80.50
2018-07-21T15:16:10.575Z,79.40
2018-07-21T15:18:40.698Z,79.40
2018-07-21T15:21:10.830Z,79.60
2018-07-21T15:26:10.673Z,80.30
2018-07-21T15:28:40.786Z,80.70
2018-07-21T15:31:11.228Z,81.10
2018-07-21T15:33:41.265Z,81.10
2018-07-21T15:38:40.983Z,81.70
2018-07-21T15:41:11.055Z,82.90
2018-07-21T15:43:41.090Z,83.00
2018-07-21T15:46:11.295Z,82.80
2018-07-21T15:48:41.335Z,82.60
2018-07-21T15:51:11.503Z,82.70
2018-07-21T15:53:41.822Z,82.80
2018-07-21T15:56:11.926Z,82.40
2018-07-21T15:58:42.065Z,82.00
2018-07-21T16:01:12.198Z,82.20
2018-07-21T16:03:42.324Z,80.70
2018-07-21T16:06:12.425Z,80.70
2018-07-21T16:08:43.516Z,81.40
2018-07-21T16:11:13.611Z,81.30
2018-07-21T16:13:49.314Z,81.10
2018-07-21T16:16:21.432Z,80.70
2018-07-21T16:18:52.119Z,81.50
2018-07-21T16:21:23.950Z,80.30
2018-07-21T16:23:53.989Z,78.60
2018-07-21T16:26:24.697Z,77.90
2018-07-21T16:28:54.753Z,78.20
2018-07-21T16:31:24.838Z,78.00
2018-07-21T16:33:56.237Z,77.90
2018-07-21T16:36:26.336Z,78.60
2018-07-21T16:38:56.421Z,79.50
2018-07-21T16:41:26.551Z,78.60
2018-07-21T16:43:56.636Z,78.60
2018-07-21T16:46:26.853Z,78.40
2018-07-21T16:48:56.906Z,78.40
2018-07-21T16:51:27.135Z,76.80
2018-07-21T16:53:57.183Z,76.10
2018-07-21T16:56:29.845Z,76.80
2018-07-21T16:59:00.455Z,78.20
2018-07-21T17:01:30.636Z,76.80
2018-07-21T17:04:00.745Z,76.80
2018-07-21T17:06:30.820Z,77.00
2018-07-21T17:09:01.048Z,77.70
2018-07-21T17:11:31.145Z,77.70
2018-07-21T17:14:05.480Z,79.00
2018-07-21T17:16:35.701Z,79.20
2018-07-21T17:19:08.641Z,79.60
2018-07-21T17:21:38.943Z,79.90
2018-07-21T17:24:09.124Z,80.20
2018-07-21T17:26:39.271Z,80.90
2018-07-21T17:29:10.580Z,82.50
2018-07-21T17:31:40.780Z,83.10
2018-07-21T17:34:10.982Z,83.70
2018-07-21T17:36:41.051Z,84.50
2018-07-21T17:39:12.391Z,84.80
2018-07-21T17:41:42.531Z,86.50
2018-07-21T17:44:12.704Z,86.50
2018-07-21T17:46:42.772Z,87.50
2018-07-21T17:49:12.890Z,87.40
2018-07-21T17:51:42.971Z,88.20
2018-07-21T17:54:13.110Z,89.10
2018-07-21T17:56:43.259Z,89.80
2018-07-21T17:59:13.393Z,90.20
2018-07-21T18:01:43.484Z,90.50
2018-07-21T18:04:13.605Z,90.40
2018-07-21T18:06:43.740Z,90.50
2018-07-21T18:09:13.853Z,90.90
2018-07-21T18:11:43.886Z,91.20
2018-07-21T18:14:14.718Z,91.30
2018-07-21T18:16:44.810Z,91.60
2018-07-21T18:19:14.878Z,91.50
2018-07-21T18:21:44.971Z,91.50
2018-07-21T18:24:15.046Z,91.90
2018-07-21T18:26:45.160Z,91.80
2018-07-21T18:29:15.333Z,91.80
2018-07-21T18:31:45.405Z,91.90
2018-07-21T18:34:15.578Z,92.10
2018-07-21T18:36:45.748Z,92.20
2018-07-21T18:39:16.214Z,92.20
2018-07-21T18:41:46.329Z,92.30
2018-07-21T18:44:16.366Z,92.10
2018-07-21T18:46:46.353Z,92.30
2018-07-21T18:49:16.364Z,92.00
2018-07-21T18:51:46.410Z,91.90
2018-07-21T18:54:16.499Z,92.10
2018-07-21T18:56:46.533Z,92.10
2018-07-21T18:59:16.560Z,92.00
2018-07-21T19:01:46.573Z,91.60
2018-07-21T19:04:17.417Z,91.80
2018-07-21T19:06:47.432Z,91.70
2018-07-21T19:09:17.463Z,91.90
2018-07-21T19:11:52.529Z,91.70
2018-07-21T19:14:22.554Z,91.60
2018-07-21T19:16:52.573Z,91.80
2018-07-21T19:19:22.628Z,92.20
2018-07-21T19:21:52.668Z,91.80
2018-07-21T19:24:22.868Z,91.90
2018-07-21T19:26:57.979Z,91.90
2018-07-21T19:29:28.011Z,91.80
2018-07-21T19:32:03.067Z,91.90
2018-07-21T19:34:35.208Z,91.80
2018-07-21T19:37:09.264Z,92.00
2018-07-21T19:39:39.435Z,92.20
2018-07-21T19:42:09.562Z,92.00
2018-07-21T19:44:39.697Z,92.00
2018-07-21T19:47:09.715Z,92.00
2018-07-21T19:49:39.786Z,92.10
2018-07-21T19:52:09.921Z,92.20
2018-07-21T19:54:39.991Z,92.30
2018-07-21T19:57:10.015Z,92.30
2018-07-21T19:59:40.109Z,92.30
2018-07-21T20:02:10.349Z,92.10
2018-07-21T20:04:40.474Z,92.40
2018-07-21T20:07:10.577Z,92.40
2018-07-21T20:12:10.440Z,92.60
2018-07-21T20:14:40.492Z,92.60
2018-07-21T20:17:10.647Z,92.80
2018-07-21T20:22:10.505Z,93.30
2018-07-21T20:24:40.591Z,93.40
2018-07-21T20:27:10.593Z,93.70
2018-07-21T20:29:40.623Z,94.10
2018-07-21T20:32:10.662Z,94.20
2018-07-21T20:34:40.790Z,94.40
2018-07-21T20:37:10.867Z,94.70
2018-07-21T20:39:41.049Z,95.20
2018-07-21T20:42:11.140Z,95.20
2018-07-21T20:44:41.191Z,95.50
2018-07-21T20:47:11.188Z,95.80
2018-07-21T20:49:41.220Z,96.00
2018-07-21T20:52:11.373Z,96.00
2018-07-21T20:54:41.456Z,96.20
2018-07-21T20:57:11.583Z,96.50
2018-07-21T20:59:41.642Z,96.70
2018-07-21T21:02:11.784Z,96.70
2018-07-21T21:04:41.868Z,96.90
2018-07-21T21:07:12.184Z,97.10
2018-07-21T21:09:42.271Z,97.30
2018-07-21T21:12:12.396Z,97.20
2018-07-21T21:17:12.003Z,97.70
2018-07-21T21:19:42.066Z,97.50
2018-07-21T21:22:12.292Z,97.30
2018-07-21T21:24:42.371Z,97.60
2018-07-21T21:27:12.440Z,97.60
2018-07-21T21:29:42.426Z,97.80
2018-07-21T21:32:12.543Z,97.70
2018-07-21T21:34:42.594Z,97.70
2018-07-21T21:37:12.643Z,98.00
2018-07-21T21:42:12.415Z,98.50
2018-07-21T21:44:42.473Z,98.50
2018-07-21T21:47:12.620Z,98.30
2018-07-21T21:49:42.831Z,98.00
2018-07-21T21:52:12.890Z,98.20
2018-07-21T21:54:42.954Z,98.30
2018-07-21T21:57:12.982Z,98.60
2018-07-21T21:59:43.027Z,98.90
2018-07-21T22:02:13.271Z,98.70
2018-07-21T22:04:43.310Z,98.50
2018-07-21T22:07:13.355Z,98.40
2018-07-21T22:09:43.473Z,98.30
2018-07-21T22:12:13.527Z,98.40
2018-07-21T22:14:43.566Z,98.70
2018-07-21T22:17:13.682Z,98.70
2018-07-21T22:19:43.714Z,98.90
2018-07-21T22:22:13.798Z,99.30
2018-07-21T22:24:43.868Z,99.70
2018-07-21T22:27:13.910Z,99.50
2018-07-21T22:34:44.058Z,99.60
2018-07-21T22:39:43.753Z,99.80
2018-07-21T22:42:13.794Z,99.90
2018-07-21T22:44:43.826Z,99.30
2018-07-21T22:47:13.864Z,99.50
2018-07-21T22:49:43.926Z,99.50
2018-07-21T22:52:13.947Z,99.40
2018-07-21T22:54:43.952Z,99.60
2018-07-21T22:57:13.978Z,99.70
2018-07-21T22:59:43.959Z,99.90
2018-07-21T23:02:14.082Z,99.70
2018-07-21T23:07:14.126Z,99.50
2018-07-21T23:09:44.131Z,99.60
2018-07-21T23:12:14.190Z,99.40
2018-07-21T23:14:44.158Z,99.20
2018-07-21T23:17:14.223Z,99.20
2018-07-21T23:19:44.188Z,99.00
2018-07-21T23:22:14.285Z,99.30
2018-07-21T23:24:44.294Z,99.00
2018-07-21T23:27:14.507Z,98.90
2018-07-21T23:29:44.486Z,98.90
2018-07-21T23:32:15.613Z,99.30
2018-07-21T23:34:45.604Z,99.20
2018-07-21T23:37:15.685Z,99.10
2018-07-21T23:39:45.732Z,99.20
2018-07-21T23:42:15.754Z,99.10
2018-07-21T23:44:45.743Z,98.70
2018-07-21T23:47:15.746Z,99.10
2018-07-21T23:49:45.726Z,99.40
2018-07-21T23:52:15.761Z,99.40
2018-07-21T23:54:45.817Z,99.10
2018-07-21T23:57:15.884Z,99.30
2018-07-21T23:59:45.949Z,99.20
